Time;durP1;ratioP1;P1;durP2;ratioP2;P2;SDS_P1;SDS_P2;PMS_P1;PMS_P2;Temp;Humidity;BMP_temperature;BMP_pressure;BME280_temperature;BME280_humidity;BME280_pressure;Samples;Min_cycle;Max_cycle;Signal;HPM_P1;HPM_P2
2022/06/25 00:00:53;;;;;;;2.97;1.70;;;;;;;24.78;32.91;99260.47;4365858;32;34501;-81
2022/06/25 00:03:40;;;;;;;2.95;1.90;;;;;;;24.84;32.53;99270.00;4368506;32;34310;-81
2022/06/25 00:06:27;;;;;;;5.30;2.30;;;;;;;24.78;32.66;99264.06;4364770;32;34604;-81
2022/06/25 00:09:13;;;;;;;3.67;1.62;;;;;;;24.67;33.49;99264.16;4368187;32;34733;-82
2022/06/25 00:15:25;;;;;;;4.70;2.00;;;;;;;24.55;33.62;99258.31;4316226;33;35118;-82
2022/06/25 00:18:11;;;;;;;5.18;1.90;;;;;;;24.54;33.31;99257.50;4320736;33;35036;-81
2022/06/25 00:20:57;;;;;;;4.75;2.00;;;;;;;24.37;33.26;99259.25;4353709;32;33475;-81
2022/06/25 00:23:43;;;;;;;4.68;1.75;;;;;;;24.01;34.05;99250.34;4370961;32;34161;-81
2022/06/25 00:26:30;;;;;;;4.37;1.83;;;;;;;23.94;34.28;99253.19;4368146;32;34333;-81
2022/06/25 00:29:16;;;;;;;3.45;1.75;;;;;;;23.94;34.47;99254.00;4369105;32;34970;-80
2022/06/25 00:32:04;;;;;;;2.58;1.45;;;;;;;24.13;33.82;99254.63;4367309;32;36082;-81
2022/06/25 00:34:51;;;;;;;5.07;1.70;;;;;;;24.09;33.53;99242.69;4367986;32;33077;-81
2022/06/25 00:37:38;;;;;;;3.78;1.60;;;;;;;24.08;34.04;99247.50;4367094;32;34400;-80
2022/06/25 00:40:24;;;;;;;3.28;1.80;;;;;;;23.93;34.01;99246.00;4366415;32;33966;-81
2022/06/25 00:43:11;;;;;;;5.78;1.80;;;;;;;23.82;34.24;99250.88;4366348;32;33662;-81
2022/06/25 00:45:58;;;;;;;4.35;1.83;;;;;;;23.88;34.67;99243.62;4368980;32;34795;-81
2022/06/25 00:48:44;;;;;;;3.03;1.60;;;;;;;23.94;35.36;99244.81;4368549;32;34641;-81
2022/06/25 00:51:37;;;;;;;7.03;2.53;;;;;;;24.30;34.63;99248.09;4363262;32;35046;-82
2022/06/25 00:54:24;;;;;;;4.28;1.83;;;;;;;24.08;35.40;99255.06;4357726;32;34648;-81
2022/06/25 00:57:13;;;;;;;5.00;1.70;;;;;;;24.20;35.50;99255.38;4358871;32;34920;-82
2022/06/25 01:00:14;;;;;;;7.95;1.80;;;;;;;24.10;35.79;99256.25;4359382;32;34334;-82
2022/06/25 01:03:00;;;;;;;4.57;1.42;;;;;;;24.12;35.85;99262.25;4360128;32;35586;-81
2022/06/25 01:05:47;;;;;;;5.53;1.50;;;;;;;23.75;35.96;99257.31;4359177;32;35497;-81
2022/06/25 01:08:34;;;;;;;5.85;1.80;;;;;;;24.19;35.49;99265.00;4368105;32;34082;-82
2022/06/25 01:11:21;;;;;;;3.45;1.70;;;;;;;24.28;35.93;99266.50;4368632;32;35475;-82
2022/06/25 01:14:11;;;;;;;4.60;1.85;;;;;;;24.36;35.54;99263.25;4372162;32;35983;-81
2022/06/25 01:16:57;;;;;;;4.35;1.65;;;;;;;24.08;36.41;99258.69;4345901;32;33991;-81
2022/06/25 01:19:45;;;;;;;4.78;1.67;;;;;;;24.61;35.65;99263.03;4361693;32;35112;-81
2022/06/25 01:22:32;;;;;;;8.90;1.80;;;;;;;24.64;36.33;99267.00;4369755;32;36156;-81
2022/06/25 01:25:19;;;;;;;4.28;1.90;;;;;;;24.64;36.40;99281.81;4369292;32;34444;-81
2022/06/25 01:28:05;;;;;;;7.55;2.40;;;;;;;24.42;37.23;99274.81;4369187;32;34238;-77
2022/06/25 01:30:51;;;;;;;7.82;2.70;;;;;;;24.00;45.75;99265.53;4371878;32;34184;-77
2022/06/25 01:33:38;;;;;;;6.72;2.12;;;;;;;23.29;53.01;99252.75;4358122;32;34206;-77
2022/06/25 01:36:26;;;;;;;4.57;2.28;;;;;;;22.80;54.29;99266.47;4370341;32;34338;-77
2022/06/25 01:39:14;;;;;;;3.12;2.03;;;;;;;22.99;54.10;99262.44;4366144;32;34402;-77
2022/06/25 01:42:00;;;;;;;7.18;2.50;;;;;;;23.08;53.10;99262.00;4372297;32;34088;-77
2022/06/25 01:44:47;;;;;;;4.55;2.35;;;;;;;22.97;53.76;99270.44;4358480;32;35273;-77
2022/06/25 01:47:34;;;;;;;7.43;2.30;;;;;;;22.02;59.95;99265.28;4371057;32;35421;-77
2022/06/25 01:50:21;;;;;;;4.65;2.20;;;;;;;21.92;61.28;99271.66;4369878;32;34923;-77
2022/06/25 01:53:07;;;;;;;5.07;2.25;;;;;;;22.21;57.07;99257.75;4367223;32;35078;-77
2022/06/25 01:55:53;;;;;;;5.90;2.10;;;;;;;21.55;58.18;99256.03;4362335;32;34735;-77
2022/06/25 01:58:40;;;;;;;8.07;2.10;;;;;;;21.98;55.26;99249.75;4366985;32;35039;-77
2022/06/25 02:01:28;;;;;;;3.67;2.17;;;;;;;21.78;57.14;99266.84;4369257;32;34594;-78
2022/06/25 02:04:15;;;;;;;4.03;2.30;;;;;;;21.73;59.09;99252.50;4370649;32;33762;-78
2022/06/25 02:07:01;;;;;;;6.03;2.47;;;;;;;21.71;58.46;99257.66;4358145;32;34559;-78
2022/06/25 02:09:52;;;;;;;5.72;2.35;;;;;;;21.79;57.95;99253.69;4359876;32;34910;-78
2022/06/25 02:12:38;;;;;;;6.20;2.28;;;;;;;21.77;57.42;99261.66;4371691;32;34007;-78
2022/06/25 02:15:25;;;;;;;5.30;2.60;;;;;;;21.68;59.42;99264.03;4362372;32;33815;-78
2022/06/25 02:18:11;;;;;;;4.40;2.60;;;;;;;21.59;61.34;99269.19;4370755;32;35550;-78
2022/06/25 02:20:58;;;;;;;6.15;2.50;;;;;;;21.37;62.91;99271.09;4371428;32;34594;-78
2022/06/25 02:23:44;;;;;;;3.65;2.15;;;;;;;21.02;65.03;99273.31;4364496;32;34781;-79
2022/06/25 02:26:30;;;;;;;5.62;2.45;;;;;;;21.56;64.17;99268.78;4355124;32;34053;-78
2022/06/25 02:29:18;;;;;;;8.68;2.40;;;;;;;21.63;63.98;99267.19;4370620;32;35291;-78
2022/06/25 02:32:04;;;;;;;4.53;2.47;;;;;;;21.69;63.35;99260.88;4371451;32;35017;-78
2022/06/25 02:34:51;;;;;;;3.60;2.30;;;;;;;21.41;65.05;99260.78;4360319;32;34672;-78
2022/06/25 02:37:38;;;;;;;7.62;2.10;;;;;;;21.43;65.23;99255.59;4366841;32;33691;-78
2022/06/25 02:40:25;;;;;;;5.22;2.60;;;;;;;21.08;64.69;99259.81;4366379;32;35303;-79
2022/06/25 02:43:11;;;;;;;3.37;2.15;;;;;;;21.24;63.08;99260.28;4372122;32;34296;-79
2022/06/25 02:45:58;;;;;;;5.20;2.40;;;;;;;21.21;61.21;99269.44;4368676;32;34892;-79
2022/06/25 02:48:44;;;;;;;5.32;2.40;;;;;;;21.08;60.29;99268.19;4369753;32;35196;-78
2022/06/25 02:51:32;;;;;;;6.55;2.20;;;;;;;21.04;61.96;99268.16;4368305;32;35668;-78
2022/06/25 02:54:18;;;;;;;3.62;2.55;;;;;;;21.08;61.92;99273.75;4369790;32;34969;-79
2022/06/25 03:00:11;;;;;;;6.30;2.40;;;;;;;21.04;61.72;99276.53;4364929;32;34912;-78
2022/06/25 03:02:57;;;;;;;4.62;2.00;;;;;;;20.81;62.09;99279.59;4359303;32;35153;-78
2022/06/25 03:05:44;;;;;;;4.87;2.03;;;;;;;20.93;60.84;99272.88;4369638;32;36368;-78
2022/06/25 03:08:31;;;;;;;3.40;1.95;;;;;;;20.93;60.08;99270.09;4371760;32;34685;-79
2022/06/25 03:11:18;;;;;;;5.43;2.10;;;;;;;21.15;58.74;99278.56;4359943;32;33836;-79
2022/06/25 03:14:05;;;;;;;5.37;2.60;;;;;;;21.08;59.09;99277.31;4355852;32;35136;-79
2022/06/25 03:16:51;;;;;;;3.58;2.08;;;;;;;20.99;61.83;99276.09;4369103;32;34940;-79
2022/06/25 03:19:38;;;;;;;4.43;2.20;;;;;;;20.99;60.55;99274.09;4370189;32;34634;-79
2022/06/25 03:22:25;;;;;;;5.25;2.10;;;;;;;21.02;60.65;99276.09;4367047;32;34222;-79
2022/06/25 03:25:12;;;;;;;4.87;2.40;;;;;;;20.70;60.57;99266.78;4365425;32;34646;-79
2022/06/25 03:27:58;;;;;;;6.45;2.33;;;;;;;20.91;60.81;99272.47;4363147;32;34948;-79
2022/06/25 03:30:45;;;;;;;4.30;2.03;;;;;;;20.93;60.47;99266.53;4359864;32;34177;-79
2022/06/25 03:33:31;;;;;;;4.28;2.12;;;;;;;20.86;61.49;99259.72;4371189;32;34199;-79
2022/06/25 03:36:19;;;;;;;4.55;2.33;;;;;;;20.56;63.41;99261.91;4363289;32;34348;-81
2022/06/25 03:39:06;;;;;;;6.60;2.30;;;;;;;20.66;63.79;99259.22;4372158;32;35060;-79
2022/06/25 03:41:53;;;;;;;3.97;1.92;;;;;;;20.59;63.43;99267.50;4372569;32;34493;-79
2022/06/25 03:44:39;;;;;;;3.55;2.00;;;;;;;20.80;61.54;99266.03;4363091;32;35218;-80
2022/06/25 03:47:27;;;;;;;18.60;2.75;;;;;;;20.93;59.80;99270.09;4373473;32;33950;-80
2022/06/25 03:50:14;;;;;;;7.93;2.37;;;;;;;21.04;58.48;99275.72;4373931;32;35056;-80
2022/06/25 03:53:01;;;;;;;5.20;2.08;;;;;;;21.10;60.38;99286.09;4365720;32;34756;-80
2022/06/25 03:55:47;;;;;;;3.50;2.00;;;;;;;21.01;60.29;99298.78;4372796;32;34246;-79
2022/06/25 03:58:39;;;;;;;4.97;2.15;;;;;;;20.98;60.35;99289.22;4371614;32;35467;-80
2022/06/25 04:01:27;;;;;;;8.20;2.05;;;;;;;21.18;57.23;99291.72;4373844;32;35064;-80
2022/06/25 04:04:14;;;;;;;4.68;2.00;;;;;;;21.37;56.83;99293.41;4367494;32;34658;-80
2022/06/25 04:07:00;;;;;;;3.87;1.90;;;;;;;21.36;56.89;99291.78;4359653;32;34159;-80
2022/06/25 04:09:47;;;;;;;4.78;2.28;;;;;;;21.74;55.39;99299.53;4362109;32;34733;-80
2022/06/25 04:12:33;;;;;;;4.55;2.00;;;;;;;21.75;57.22;99297.53;4373509;32;35001;-80
2022/06/25 04:15:20;;;;;;;3.97;1.85;;;;;;;21.90;57.90;99304.72;4370350;32;34144;-80
2022/06/25 04:18:06;;;;;;;4.47;2.08;;;;;;;21.94;58.62;99305.53;4373815;32;34042;-80
2022/06/25 04:20:53;;;;;;;3.58;2.00;;;;;;;21.99;58.18;99301.53;4358883;32;34462;-80
2022/06/25 04:23:39;;;;;;;4.43;1.98;;;;;;;22.05;57.97;99310.31;4371352;32;34880;-80
2022/06/25 04:26:26;;;;;;;3.85;1.92;;;;;;;22.15;56.25;99306.75;4373117;32;35570;-80
2022/06/25 04:29:12;;;;;;;3.92;1.90;;;;;;;22.04;58.45;99311.53;4373477;32;33656;-80
2022/06/25 04:31:58;;;;;;;3.78;2.10;;;;;;;22.29;58.85;99315.16;4358012;32;34646;-81
2022/06/25 04:34:46;;;;;;;5.72;2.08;;;;;;;22.32;57.67;99317.16;4359401;32;35014;-80
2022/06/25 04:37:33;;;;;;;3.70;1.95;;;;;;;22.06;57.64;99318.31;4366798;32;35408;-80
2022/06/25 04:40:20;;;;;;;5.82;1.98;;;;;;;22.44;56.95;99322.34;4373030;32;34356;-80
2022/06/25 04:43:08;;;;;;;5.20;2.00;;;;;;;22.59;53.77;99323.13;4370923;32;34287;-80
2022/06/25 04:45:54;;;;;;;3.70;1.73;;;;;;;22.66;51.74;99316.75;4363873;32;34927;-79
2022/06/25 04:48:41;;;;;;;3.92;1.80;;;;;;;22.72;52.37;99323.53;4373542;32;35746;-82
2022/06/25 04:51:30;;;;;;;3.08;1.90;;;;;;;22.81;53.69;99329.50;4372738;32;33757;-82
2022/06/25 04:54:17;;;;;;;3.87;1.80;;;;;;;22.81;50.21;99335.06;4363721;32;33810;-82
2022/06/25 04:57:04;;;;;;;4.68;2.10;;;;;;;22.52;50.42;99336.31;4365908;32;36069;-82
2022/06/25 04:59:51;;;;;;;5.07;2.15;;;;;;;23.11;51.89;99337.47;4370580;32;34626;-82
2022/06/25 05:02:39;;;;;;;6.55;1.83;;;;;;;23.01;50.56;99343.06;4362703;32;33861;-82
2022/06/25 05:05:28;;;;;;;3.80;2.05;;;;;;;23.42;47.79;99332.16;4364517;32;34338;-82
2022/06/25 05:08:14;;;;;;;4.00;1.77;;;;;;;23.46;47.57;99335.75;4371996;32;35019;-82
2022/06/25 05:11:01;;;;;;;5.87;1.83;;;;;;;23.60;46.98;99329.28;4365615;32;34735;-83
2022/06/25 05:13:48;;;;;;;4.95;1.92;;;;;;;23.42;48.94;99334.16;4370560;32;33747;-82
2022/06/25 05:16:35;;;;;;;5.75;2.12;;;;;;;23.61;47.88;99330.87;4366911;32;35256;-83
2022/06/25 05:19:21;;;;;;;4.10;1.95;;;;;;;23.21;48.23;99326.66;4370373;32;35898;-81
2022/06/25 05:22:08;;;;;;;3.97;1.85;;;;;;;23.63;47.12;99336.88;4360248;32;34193;-82
2022/06/25 05:24:54;;;;;;;5.50;2.22;;;;;;;23.94;47.06;99329.53;4369789;32;32956;-81
2022/06/25 05:27:41;;;;;;;5.18;2.10;;;;;;;24.20;45.87;99347.75;4371537;32;33617;-82
2022/06/25 05:30:27;;;;;;;3.62;1.90;;;;;;;23.53;45.07;99360.84;4372331;32;35643;-82
2022/06/25 05:33:13;;;;;;;2.97;2.00;;;;;;;23.93;45.17;99349.53;4370409;32;34938;-82
2022/06/25 05:36:00;;;;;;;4.75;2.25;;;;;;;24.28;45.71;99345.72;4358466;32;33928;-82
2022/06/25 05:38:46;;;;;;;5.25;2.28;;;;;;;24.53;43.45;99345.53;4372917;32;34689;-82
2022/06/25 05:41:32;;;;;;;2.97;1.90;;;;;;;24.04;42.77;99347.44;4367985;32;34566;-82
2022/06/25 05:44:25;;;;;;;5.68;2.15;;;;;;;23.96;44.38;99335.53;4370631;32;34345;-82
2022/06/25 05:47:11;;;;;;;6.50;2.15;;;;;;;23.97;43.98;99341.91;4356603;32;33516;-82
2022/06/25 05:49:58;;;;;;;4.15;2.22;;;;;;;24.34;44.19;99343.28;4363795;32;34375;-82
2022/06/25 05:52:44;;;;;;;6.07;2.28;;;;;;;24.60;42.83;99344.69;4367917;32;34872;-83
2022/06/25 05:55:30;;;;;;;5.35;2.33;;;;;;;23.77;43.70;99348.00;4370851;32;33538;-82
2022/06/25 05:58:17;;;;;;;5.25;2.10;;;;;;;23.65;43.45;99356.03;4371297;32;34223;-82
2022/06/25 06:01:03;;;;;;;8.75;2.60;;;;;;;23.61;43.53;99361.63;4368820;32;34235;-81
2022/06/25 06:03:49;;;;;;;5.40;2.47;;;;;;;23.62;43.84;99362.44;4361935;32;36044;-81
2022/06/25 06:06:36;;;;;;;7.65;2.30;;;;;;;23.50;44.07;99370.06;4358611;32;34687;-83
2022/06/25 06:09:29;;;;;;;9.68;2.60;;;;;;;23.05;46.43;99367.00;4372143;32;34381;-83
2022/06/25 06:12:15;;;;;;;5.50;2.53;;;;;;;23.37;45.92;99359.72;4362321;32;34414;-83
2022/06/25 06:15:02;;;;;;;7.62;2.40;;;;;;;23.41;45.76;99374.50;4364389;32;34989;-82
2022/06/25 06:17:48;;;;;;;6.45;2.65;;;;;;;23.01;48.11;99371.78;4359151;32;34474;-84
2022/06/25 06:20:34;;;;;;;9.25;2.78;;;;;;;22.94;47.37;99376.56;4359301;32;34101;-81
2022/06/25 06:23:20;;;;;;;5.12;3.03;;;;;;;22.70;50.64;99372.59;4359414;32;34590;-82
2022/06/25 06:26:07;;;;;;;8.32;3.30;;;;;;;23.24;50.77;99368.53;4372917;32;33943;-81
2022/06/25 06:28:53;;;;;;;11.43;4.05;;;;;;;22.65;52.32;99371.00;4358509;32;34941;-84
2022/06/25 06:31:40;;;;;;;8.88;4.40;;;;;;;22.99;54.92;99367.81;4367144;32;35145;-81
2022/06/25 06:34:26;;;;;;;7.80;4.57;;;;;;;22.50;58.66;99370.19;4370388;32;34707;-80
2022/06/25 06:37:13;;;;;;;10.10;4.40;;;;;;;22.37;58.76;99378.16;4364578;32;35714;-79
2022/06/25 06:40:05;;;;;;;9.38;4.93;;;;;;;22.58;58.61;99374.59;4360710;32;34639;-81
2022/06/25 06:42:52;;;;;;;9.05;4.80;;;;;;;22.80;57.73;99383.75;4348595;32;34204;-80
2022/06/25 06:45:38;;;;;;;7.70;4.87;;;;;;;22.53;60.71;99390.94;4368963;32;34276;-77
2022/06/25 06:48:24;;;;;;;8.23;4.87;;;;;;;22.44;61.69;99400.50;4359404;32;35886;-80
2022/06/25 06:51:10;;;;;;;10.98;5.55;;;;;;;22.87;61.79;99400.50;4367221;32;34574;-79
2022/06/25 06:53:57;;;;;;;11.23;6.03;;;;;;;22.40;64.86;99396.91;4361888;32;34953;-79
2022/06/25 06:56:43;;;;;;;8.13;5.37;;;;;;;22.62;65.87;99416.47;4365419;32;34627;-79
2022/06/25 06:59:29;;;;;;;9.25;5.97;;;;;;;22.37;67.87;99410.84;4365696;32;35197;-80
2022/06/25 07:02:16;;;;;;;11.55;5.90;;;;;;;22.69;66.81;99416.47;4367925;32;34720;-80
2022/06/25 07:05:02;;;;;;;8.70;5.37;;;;;;;23.03;64.82;99413.31;4361662;32;34172;-79
2022/06/25 07:07:49;;;;;;;8.43;5.70;;;;;;;22.84;65.23;99423.66;4368111;32;34762;-81
2022/06/25 07:10:35;;;;;;;11.07;5.35;;;;;;;22.51;66.32;99426.81;4366063;32;34609;-79
2022/06/25 07:13:21;;;;;;;8.15;4.87;;;;;;;22.38;68.12;99418.84;4367699;32;35404;-80
2022/06/25 07:16:07;;;;;;;7.85;4.32;;;;;;;22.99;66.42;99423.69;4359545;32;34124;-80
2022/06/25 07:18:55;;;;;;;6.62;4.35;;;;;;;23.19;65.46;99422.06;4366744;32;35674;-81
2022/06/25 07:21:42;;;;;;;7.32;4.50;;;;;;;22.77;65.58;99434.00;4360901;32;35055;-82
2022/06/25 07:24:28;;;;;;;9.13;5.00;;;;;;;22.59;66.66;99431.22;4360100;32;34533;-81
2022/06/25 07:27:14;;;;;;;7.37;4.82;;;;;;;23.10;64.85;99433.66;4371752;32;35247;-83
2022/06/25 07:30:01;;;;;;;9.10;5.32;;;;;;;23.02;65.39;99431.25;4367405;32;35649;-83
2022/06/25 07:32:47;;;;;;;6.93;4.65;;;;;;;23.19;64.88;99430.44;4355707;32;35964;-83
2022/06/25 07:35:33;;;;;;;6.80;4.43;;;;;;;22.99;66.76;99420.88;4371600;32;34649;-81
2022/06/25 07:38:20;;;;;;;6.32;3.87;;;;;;;23.02;66.29;99423.66;4362947;32;33058;-79
2022/06/25 07:41:06;;;;;;;8.18;4.70;;;;;;;22.86;66.77;99431.66;4367163;32;35660;-81
2022/06/25 07:43:52;;;;;;;7.30;4.55;;;;;;;23.53;64.51;99422.37;4363307;32;34959;-83
2022/06/25 07:46:39;;;;;;;5.80;4.05;;;;;;;23.30;65.91;99416.44;4364676;32;34179;-80
2022/06/25 07:49:26;;;;;;;5.35;3.80;;;;;;;23.31;65.93;99434.84;4368712;32;34861;-81
2022/06/25 07:52:12;;;;;;;7.78;3.95;;;;;;;23.56;64.66;99427.19;4370046;32;35523;-83
2022/06/25 07:54:59;;;;;;;6.78;4.28;;;;;;;23.76;65.01;99427.56;4372717;32;34984;-82
2022/06/25 07:57:46;;;;;;;8.23;4.57;;;;;;;24.22;62.89;99428.53;4365928;32;35624;-82
2022/06/25 08:00:33;;;;;;;6.35;3.65;;;;;;;23.72;64.69;99437.94;4371072;32;34159;-82
2022/06/25 08:03:19;;;;;;;7.12;3.33;;;;;;;23.87;63.14;99443.47;4365881;32;34564;-81
2022/06/25 08:06:06;;;;;;;5.62;3.70;;;;;;;23.15;65.76;99451.22;4366738;32;35598;-80
2022/06/25 08:08:52;;;;;;;9.20;3.50;;;;;;;23.48;64.23;99453.56;4362443;32;35564;-81
2022/06/25 08:11:38;;;;;;;6.12;3.70;;;;;;;23.85;63.47;99451.47;4359943;32;34943;-81
2022/06/25 08:14:25;;;;;;;4.97;3.47;;;;;;;23.56;64.20;99457.12;4359277;32;34198;-80
2022/06/25 08:17:11;;;;;;;5.43;3.22;;;;;;;24.16;62.96;99467.34;4370890;32;34959;-80
2022/06/25 08:19:57;;;;;;;5.97;3.20;;;;;;;24.44;60.35;99458.00;4366281;32;34878;-79
2022/06/25 08:22:44;;;;;;;7.22;3.37;;;;;;;23.90;62.61;99459.44;4371994;32;34564;-81
2022/06/25 08:25:35;;;;;;;6.55;3.85;;;;;;;23.96;63.61;99472.63;4364427;32;35465;-83
2022/06/25 08:28:28;;;;;;;6.90;4.05;;;;;;;23.68;62.44;99467.91;4370456;32;34591;-79
2022/06/25 08:31:14;;;;;;;7.53;3.72;;;;;;;23.88;61.79;99489.81;4366271;32;34624;-81
2022/06/25 08:34:00;;;;;;;7.18;4.28;;;;;;;23.66;63.17;99484.28;4359120;32;34166;-86
2022/06/25 08:36:47;;;;;;;6.85;3.95;;;;;;;23.57;63.41;99481.13;4358856;32;35553;-81
2022/06/25 08:39:33;;;;;;;9.88;3.85;;;;;;;23.41;63.68;99475.16;4369363;32;35819;-86
2022/06/25 08:42:20;;;;;;;7.18;3.50;;;;;;;23.93;62.88;99475.44;4358206;32;34184;-84
2022/06/25 08:45:07;;;;;;;7.50;3.67;;;;;;;24.58;61.12;99487.12;4368262;32;35065;-86
2022/06/25 08:47:57;;;;;;;6.35;4.00;;;;;;;23.90;61.45;99484.63;4358353;32;34564;-85
2022/06/25 08:50:50;;;;;;;7.20;3.90;;;;;;;23.84;61.81;99483.47;4370869;32;35028;-84
2022/06/25 08:53:37;;;;;;;5.43;3.75;;;;;;;23.01;63.63;99479.97;4367866;32;34745;-85
2022/06/25 08:56:23;;;;;;;8.18;3.40;;;;;;;23.67;61.49;99485.88;4360735;32;34250;-85
2022/06/25 08:59:10;;;;;;;7.62;3.25;;;;;;;24.10;61.31;99477.34;4368783;32;34328;-86
2022/06/25 09:01:57;;;;;;;5.57;3.12;;;;;;;24.12;61.55;99486.16;4361047;32;35922;-84
2022/06/25 09:04:44;;;;;;;7.45;3.20;;;;;;;23.69;62.67;99483.47;4357522;32;35470;-81
2022/06/25 09:07:30;;;;;;;9.05;4.05;;;;;;;23.92;61.81;99473.84;4371281;32;34196;-84
2022/06/25 09:10:22;;;;;;;6.93;3.78;;;;;;;24.81;59.18;99476.16;4371271;32;34655;-85
2022/06/25 09:13:13;;;;;;;8.00;4.35;;;;;;;24.80;58.17;99480.19;4373007;32;35016;-85
2022/06/25 09:16:00;;;;;;;7.10;3.65;;;;;;;24.82;59.36;99477.00;4368113;32;34969;-85
2022/06/25 09:18:46;;;;;;;7.03;4.05;;;;;;;25.10;57.23;99479.56;4358013;32;34530;-82
2022/06/25 09:21:42;;;;;;;9.50;3.40;;;;;;;24.22;58.33;99490.91;4365686;32;35262;-84
2022/06/25 09:24:48;;;;;;;7.57;3.67;;;;;;;25.06;57.43;99483.59;4367683;32;36211;-84
2022/06/25 09:27:38;;;;;;;5.32;3.58;;;;;;;25.65;55.64;99485.50;4362260;32;34163;-84
2022/06/25 09:30:30;;;;;;;5.53;3.40;;;;;;;25.45;54.86;99486.09;4366957;32;35179;-85
2022/06/25 09:33:16;;;;;;;4.87;3.53;;;;;;;26.18;53.50;99484.91;4367802;32;34761;-86
2022/06/25 09:36:03;;;;;;;6.97;4.35;;;;;;;25.46;54.94;99490.47;4355388;32;35000;-83
2022/06/25 09:38:49;;;;;;;7.65;3.75;;;;;;;24.68;56.54;99483.50;4366012;32;34716;-84
2022/06/25 09:41:56;;;;;;;6.72;4.18;;;;;;;25.45;55.54;99491.69;4360667;32;34230;-83
2022/06/25 09:44:42;;;;;;;7.20;3.53;;;;;;;25.10;55.07;99489.97;4360584;32;34193;-85
2022/06/25 09:47:29;;;;;;;8.93;3.75;;;;;;;25.80;53.59;99487.69;4358079;32;35336;-83
2022/06/25 09:50:18;;;;;;;6.20;3.53;;;;;;;25.41;54.19;99488.09;4365622;32;34733;-82
2022/06/25 09:53:04;;;;;;;6.43;3.47;;;;;;;25.39;54.39;99490.56;4369822;32;36700;-85
2022/06/25 09:55:50;;;;;;;6.75;2.97;;;;;;;25.64;53.18;99490.28;4365441;32;36799;-83
2022/06/25 09:58:37;;;;;;;4.35;3.08;;;;;;;25.85;52.92;99494.91;4369368;32;34092;-87
2022/06/25 10:01:25;;;;;;;5.75;3.08;;;;;;;25.37;54.24;99484.56;4366170;32;33679;-86
2022/06/25 10:04:12;;;;;;;5.93;3.03;;;;;;;26.29;51.89;99484.72;4356839;32;35146;-83
2022/06/25 10:07:01;;;;;;;6.55;3.35;;;;;;;25.91;52.79;99492.44;4359194;32;35660;-81
2022/06/25 10:09:48;;;;;;;8.93;3.30;;;;;;;25.67;52.20;99475.44;4363314;32;35866;-83
2022/06/25 10:12:34;;;;;;;6.95;3.10;;;;;;;25.44;54.36;99476.06;4359043;32;34881;-87
2022/06/25 10:15:23;;;;;;;7.43;4.50;;;;;;;25.46;53.35;99472.84;4368253;32;34416;-85
2022/06/25 10:18:10;;;;;;;6.68;3.30;;;;;;;26.31;52.22;99471.06;4368304;32;34762;-83
2022/06/25 10:20:57;;;;;;;4.85;3.28;;;;;;;26.07;50.24;99460.94;4365751;32;35073;-84
2022/06/25 10:23:44;;;;;;;4.75;3.03;;;;;;;26.15;52.24;99473.69;4364718;32;34191;-84
2022/06/25 10:26:31;;;;;;;5.72;3.30;;;;;;;26.71;49.33;99462.91;4359302;32;34577;-84
2022/06/25 10:29:25;;;;;;;6.28;3.90;;;;;;;26.76;49.49;99456.81;4359338;32;34416;-84
2022/06/25 10:32:16;;;;;;;6.50;3.42;;;;;;;26.37;50.17;99468.59;4362926;32;35034;-85
2022/06/25 10:35:03;;;;;;;5.18;3.42;;;;;;;26.18;50.64;99462.44;4354310;32;34594;-85
2022/06/25 10:38:00;;;;;;;8.40;3.60;;;;;;;26.52;48.44;99458.75;4367771;32;33815;-84
2022/06/25 10:40:48;;;;;;;4.45;2.83;;;;;;;26.45;48.67;99459.63;4360845;32;34894;-85
2022/06/25 10:43:34;;;;;;;4.75;3.33;;;;;;;27.02;49.19;99449.53;4366426;32;35875;-83
2022/06/25 10:46:21;;;;;;;6.05;3.33;;;;;;;26.97;47.65;99454.84;4361007;32;35061;-86
2022/06/25 10:49:13;;;;;;;5.25;2.75;;;;;;;26.53;48.05;99451.16;4367206;32;34631;-83
2022/06/25 10:52:03;;;;;;;4.32;3.05;;;;;;;26.90;46.92;99441.72;4359924;32;33619;-86
2022/06/25 10:54:59;;;;;;;5.37;3.30;;;;;;;27.50;47.22;99433.47;4359199;32;34818;-83
2022/06/25 10:57:49;;;;;;;6.18;2.95;;;;;;;27.12;46.70;99434.53;4348397;32;35183;-84
2022/06/25 11:00:57;;;;;;;4.37;2.65;;;;;;;27.36;46.36;99437.34;4364642;32;35103;-84
2022/06/25 11:03:43;;;;;;;6.32;2.78;;;;;;;27.30;46.35;99434.22;4356739;32;34187;-86
2022/06/25 11:06:35;;;;;;;5.75;3.00;;;;;;;27.82;46.43;99434.88;4366659;32;34646;-85
2022/06/25 11:09:21;;;;;;;6.20;3.00;;;;;;;28.20;44.62;99433.22;4359478;32;34763;-84
2022/06/25 11:12:07;;;;;;;5.60;3.00;;;;;;;28.01;44.94;99425.62;4365409;32;35213;-84
2022/06/25 11:14:58;;;;;;;8.00;2.70;;;;;;;27.84;44.49;99435.25;4367765;32;34892;-83
2022/06/25 11:17:45;;;;;;;;;;;;;;;27.21;45.31;99438.78;4356882;32;34432;-86
2022/06/25 11:20:32;;;;;;;6.65;2.58;;;;;;;27.94;43.24;99437.03;4365396;32;34996;-86
2022/06/25 11:23:18;;;;;;;4.20;2.40;;;;;;;26.91;47.15;99435.66;4359112;32;34405;-83
2022/06/25 11:29:09;;;;;;;4.57;2.30;;;;;;;27.80;43.29;99438.09;4357505;32;34324;-85
2022/06/25 11:31:56;;;;;;;6.37;2.17;;;;;;;28.90;42.67;99439.69;4364039;32;35533;-86
2022/06/25 11:34:43;;;;;;;3.67;2.10;;;;;;;28.58;42.51;99427.19;4368967;32;33799;-86
2022/06/25 11:37:30;;;;;;;2.47;1.73;;;;;;;28.25;42.76;99432.72;4365513;32;34345;-85
2022/06/25 11:40:17;;;;;;;4.43;2.00;;;;;;;27.83;42.99;99433.62;4347048;32;35905;-83
2022/06/25 11:43:08;;;;;;;4.65;2.10;;;;;;;28.17;42.91;99430.50;4362942;32;34705;-86
2022/06/25 11:45:59;;;;;;;3.70;1.90;;;;;;;27.45;43.97;99443.19;4363359;32;35111;-82
2022/06/25 11:48:49;;;;;;;;;;;;;;;27.64;43.32;99436.00;4361617;32;34311;-84
2022/06/25 11:51:43;;;;;;;3.00;1.60;;;;;;;28.67;42.43;99427.34;4367817;32;35319;-85
2022/06/25 11:54:29;;;;;;;3.28;1.85;;;;;;;27.97;43.14;99419.25;4361411;32;34903;-82
2022/06/25 11:57:17;;;;;;;3.53;1.60;;;;;;;28.20;42.81;99421.16;4367616;32;34202;-85
2022/06/25 12:00:04;;;;;;;3.83;1.75;;;;;;;27.80;42.95;99419.19;4362319;32;34867;-86
2022/06/25 12:03:05;;;;;;;4.30;2.00;;;;;;;27.69;42.42;99421.44;4366077;32;36672;-84
2022/06/25 12:05:53;;;;;;;4.90;1.70;;;;;;;28.07;42.33;99412.63;4359989;32;34923;-86
2022/06/25 12:08:40;;;;;;;4.70;1.77;;;;;;;28.78;41.61;99403.75;4368700;32;34423;-87
2022/06/25 12:11:28;;;;;;;2.70;1.67;;;;;;;28.58;41.02;99396.19;4360134;32;34603;-86
2022/06/25 12:14:16;;;;;;;4.30;1.80;;;;;;;28.38;41.31;99410.31;4357206;32;36064;-85
2022/06/25 12:17:04;;;;;;;4.57;1.95;;;;;;;28.07;42.92;99401.34;4360720;32;34693;-84
2022/06/25 12:19:52;;;;;;;4.22;2.05;;;;;;;27.76;44.68;99393.13;4362212;32;33820;-85
2022/06/25 12:22:46;;;;;;;3.15;1.80;;;;;;;28.29;43.38;99393.22;4363559;32;33531;-86
2022/06/25 12:25:33;;;;;;;5.45;1.98;;;;;;;28.25;43.73;99406.56;4360701;32;35017;-83
2022/06/25 12:28:36;;;;;;;12.15;2.00;;;;;;;28.11;43.37;99390.78;4358843;32;34214;-82
2022/06/25 12:31:23;;;;;;;2.25;1.65;;;;;;;28.28;44.77;99388.00;4364370;32;34227;-86
2022/06/25 12:34:10;;;;;;;3.97;2.28;;;;;;;28.43;43.38;99389.28;4357004;32;35244;-83
2022/06/25 12:36:56;;;;;;;2.72;1.55;;;;;;;28.39;43.31;99377.28;4367563;32;34525;-82
2022/06/25 12:39:46;;;;;;;2.85;1.40;;;;;;;28.13;43.30;99377.06;4369335;32;35542;-86
2022/06/25 12:42:33;;;;;;;1.77;1.17;;;;;;;28.19;44.00;99378.13;4365232;32;34092;-85
2022/06/25 12:45:21;;;;;;;4.03;1.30;;;;;;;28.10;42.91;99382.78;4369697;32;33523;-86
2022/06/25 12:48:11;;;;;;;2.92;1.30;;;;;;;28.10;43.27;99372.31;4340272;32;34391;-84
2022/06/25 12:51:11;;;;;;;4.60;1.40;;;;;;;28.75;42.34;99365.97;4365980;32;34658;-83
2022/06/25 12:53:57;;;;;;;2.80;1.10;;;;;;;28.15;42.95;99371.81;4368000;32;34059;-83
2022/06/25 12:56:51;;;;;;;2.62;1.00;;;;;;;28.17;41.87;99365.72;4366207;32;34941;-84
2022/06/25 12:59:43;;;;;;;1.67;0.93;;;;;;;28.10;41.77;99369.50;4358404;32;35895;-86
2022/06/25 13:02:29;;;;;;;1.15;0.93;;;;;;;28.06;42.66;99365.94;4358635;32;34635;-85
2022/06/25 13:05:17;;;;;;;2.65;1.00;;;;;;;27.71;43.11;99361.88;4366376;32;34294;-84
2022/06/25 13:08:04;;;;;;;1.20;1.00;;;;;;;27.25;43.78;99386.91;4361335;32;35614;-84
2022/06/25 13:10:50;;;;;;;1.23;0.90;;;;;;;27.69;43.01;99364.31;4368156;32;35042;-82
2022/06/25 13:13:37;;;;;;;1.95;1.17;;;;;;;28.17;42.17;99366.50;4369961;32;34696;-85
2022/06/25 13:16:28;;;;;;;4.05;1.10;;;;;;;27.92;42.13;99372.72;4372401;32;35251;-84
2022/06/25 13:19:15;;;;;;;2.17;0.90;;;;;;;28.21;41.90;99378.50;4362236;32;35786;-82